Blountville, Tennessee
Current Conditions -  °F | °C
As of 12:53 PM on Friday 19 Dec 2014 (Local Time) from KTRI Reporting Station
Broken Clouds Broken Clouds  
Wind Chill: 45°   Ceiling: 25000
Heat Index: 45°   Visibility: 10mi
Dew Point: 23°   Wind: 3mph
Humidity: 42%   Direction: 60°ENE
Pressure: 30.17"   Gusts: NA
Location:  36.53°N, 82.33°W
Report Text: KTRI 191753Z 06003KT 10SM FEW055 BKN250 07/M05 A3017 RMK AO2 SLP209 T00721050 10072 20028 58010
Loading
Personal Weather Stations






























Interactive Weather Map New forecast layout! Learn more

10-Day Weather Forecast

Advertisements
Track Severe Weather on mobile